Time;durP1;ratioP1;P1;durP2;ratioP2;P2;SDS_P1;SDS_P2;PMS_P1;PMS_P2;Temp;Humidity;BMP_temperature;BMP_pressure;BME280_temperature;BME280_humidity;BME280_pressure;Samples;Min_cycle;Max_cycle;Signal;HPM_P1;HPM_P2
2022/07/20 00:01:19;;;;;;;5.30;2.67;;;27.10;62.20;;;;;;5077099;28;20123;-66
2022/07/20 00:03:45;;;;;;;7.13;3.00;;;27.10;63.20;;;;;;5076356;28;20363;-65
2022/07/20 00:06:13;;;;;;;4.75;2.78;;;27.10;63.60;;;;;;5077027;28;20097;-65
2022/07/20 00:11:23;;;;;;;7.80;3.10;;;26.90;63.40;;;;;;5076274;28;20105;-65
2022/07/20 00:13:55;;;;;;;4.28;3.22;;;26.90;64.20;;;;;;5077164;28;20392;-64
2022/07/20 00:16:22;;;;;;;4.43;2.70;;;26.90;64.20;;;;;;5076274;28;20047;-65
2022/07/20 00:18:48;;;;;;;3.35;2.95;;;26.80;63.70;;;;;;5076195;28;20028;-65
2022/07/20 00:21:14;;;;;;;4.32;2.97;;;26.70;65.00;;;;;;5076632;28;20119;-64
2022/07/20 00:23:40;;;;;;;4.32;3.00;;;26.60;65.30;;;;;;5076859;28;20396;-63
2022/07/20 00:26:06;;;;;;;8.20;3.55;;;26.70;61.30;;;;;;5042773;28;20041;-64
2022/07/20 00:28:32;;;;;;;7.32;3.90;;;26.80;60.30;;;;;;5076030;28;20304;-65
2022/07/20 00:30:58;;;;;;;9.75;4.30;;;26.80;60.60;;;;;;5077361;28;20300;-67
2022/07/20 00:33:24;;;;;;;9.07;5.07;;;26.90;61.30;;;;;;5076033;28;20029;-63
2022/07/20 00:35:53;;;;;;;10.82;5.60;;;26.90;62.40;;;;;;5076737;28;20024;-64
2022/07/20 00:38:19;;;;;;;13.93;5.85;;;26.90;62.90;;;;;;5059166;28;20036;-63
2022/07/20 00:40:44;;;;;;;9.15;6.60;;;27.00;63.60;;;;;;5076788;28;20392;-65
2022/07/20 00:43:10;;;;;;;14.57;9.30;;;26.90;64.40;;;;;;5076658;28;20020;-65
2022/07/20 00:45:36;;;;;;;15.20;10.05;;;27.00;66.10;;;;;;5079398;28;20055;-65
2022/07/20 00:48:03;;;;;;;12.82;9.65;;;27.10;67.00;;;;;;5080618;28;20261;-65
2022/07/20 00:50:28;;;;;;;16.48;11.50;;;27.00;67.90;;;;;;5080583;28;20435;-64
2022/07/20 00:52:54;;;;;;;26.95;13.35;;;26.80;70.20;;;;;;5079888;28;20052;-61
2022/07/20 00:55:20;;;;;;;22.20;15.20;;;26.70;73.10;;;;;;5080626;28;20063;-64
2022/07/20 00:57:46;;;;;;;26.80;16.08;;;26.60;76.20;;;;;;5080367;28;20378;-61
2022/07/20 01:00:13;;;;;;;23.38;17.63;;;26.60;77.50;;;;;;5080503;28;20033;-66
2022/07/20 01:02:39;;;;;;;25.77;18.17;;;26.40;81.00;;;;;;5063183;28;20041;-61
2022/07/20 01:05:16;;;;;;;33.00;18.95;;;26.20;85.30;;;;;;5080355;28;20040;-62
2022/07/20 01:07:47;;;;;;;27.63;19.13;;;26.20;88.70;;;;;;5079628;28;20037;-65
2022/07/20 01:10:14;;;;;;;23.98;19.65;;;26.20;90.90;;;;;;5080258;28;20037;-60
2022/07/20 01:12:45;;;;;;;31.63;19.92;;;26.20;92.50;;;;;;5080215;28;20047;-58
2022/07/20 01:15:11;;;;;;;28.90;20.55;;;26.00;94.50;;;;;;5080240;28;20101;-57
2022/07/20 01:17:37;;;;;;;27.20;20.67;;;26.00;96.50;;;;;;5080067;28;20028;-63
2022/07/20 01:20:03;;;;;;;30.52;20.17;;;25.90;98.30;;;;;;5079971;28;20031;-62
2022/07/20 01:22:29;;;;;;;29.55;22.45;;;25.90;99.90;;;;;;5080035;28;20392;-60
2022/07/20 01:24:56;;;;;;;31.70;21.70;;;25.80;99.90;;;;;;5079897;28;20106;-62
2022/07/20 01:27:21;;;;;;;29.45;22.40;;;25.70;99.90;;;;;;5079069;28;20017;-59
2022/07/20 01:29:47;;;;;;;28.90;22.50;;;25.70;99.90;;;;;;5062429;28;20037;-59
2022/07/20 01:32:13;;;;;;;32.13;22.17;;;25.70;99.90;;;;;;5079888;28;20345;-61
2022/07/20 01:34:39;;;;;;;30.15;23.52;;;25.70;99.90;;;;;;5079804;28;20119;-60
2022/07/20 01:37:08;;;;;;;33.05;23.40;;;25.70;99.90;;;;;;5079061;28;20343;-61
2022/07/20 01:39:33;;;;;;;30.25;22.73;;;25.60;99.90;;;;;;5079632;28;20052;-63
2022/07/20 01:41:59;;;;;;;28.48;22.98;;;25.40;99.90;;;;;;5079742;28;20343;-63
2022/07/20 01:44:25;;;;;;;29.60;23.02;;;25.30;99.90;;;;;;5078838;28;20039;-62
2022/07/20 01:46:51;;;;;;;32.40;22.70;;;25.20;99.90;;;;;;5078888;28;20040;-60
2022/07/20 01:49:19;;;;;;;32.80;23.55;;;25.20;99.90;;;;;;5079350;28;20036;-65
2022/07/20 01:51:45;;;;;;;31.15;24.08;;;25.20;99.90;;;;;;5079483;28;20267;-60
2022/07/20 01:54:11;;;;;;;36.05;25.00;;;25.30;99.90;;;;;;5078985;28;20033;-61
2022/07/20 01:56:40;;;;;;;34.50;23.23;;;25.30;99.90;;;;;;5078288;28;20044;-62
2022/07/20 01:59:07;;;;;;;31.40;23.45;;;25.30;99.90;;;;;;5079323;28;20032;-63
2022/07/20 02:01:34;;;;;;;32.40;22.90;;;25.10;99.90;;;;;;5078654;28;20097;-63
2022/07/20 02:04:00;;;;;;;33.55;24.48;;;25.00;99.90;;;;;;5078504;28;20032;-63
2022/07/20 02:06:26;;;;;;;33.50;23.85;;;25.00;99.90;;;;;;5078617;28;20124;-61
2022/07/20 02:08:52;;;;;;;32.10;23.23;;;25.00;99.90;;;;;;5079376;28;20044;-62
2022/07/20 02:11:18;;;;;;;28.10;23.00;;;25.00;99.90;;;;;;5079426;28;20042;-62
2022/07/20 02:13:44;;;;;;;29.55;22.73;;;24.90;99.90;;;;;;5079377;28;20028;-61
2022/07/20 02:16:15;;;;;;;29.48;22.70;;;24.80;99.90;;;;;;5079567;28;20025;-59
2022/07/20 02:18:55;;;;;;;31.03;23.00;;;24.80;99.90;;;;;;5078256;28;20056;-62
2022/07/20 02:21:22;;;;;;;32.30;23.48;;;25.00;99.90;;;;;;5078997;28;20351;-64
2022/07/20 02:23:49;;;;;;;29.08;22.85;;;24.90;99.90;;;;;;5078929;28;20402;-64
2022/07/20 02:26:15;;;;;;;29.45;22.58;;;24.90;99.90;;;;;;5078736;28;20040;-63
2022/07/20 02:28:41;;;;;;;29.65;22.65;;;24.70;99.90;;;;;;5061669;28;20064;-63
2022/07/20 02:31:07;;;;;;;29.65;22.17;;;24.60;99.90;;;;;;5078046;28;20395;-62
2022/07/20 02:33:33;;;;;;;32.83;21.70;;;24.70;99.90;;;;;;5077952;28;20367;-62
2022/07/20 02:35:59;;;;;;;32.13;22.73;;;24.70;99.90;;;;;;5078650;28;20078;-62
2022/07/20 02:38:26;;;;;;;28.58;22.67;;;24.70;99.90;;;;;;5078532;28;20048;-64
2022/07/20 02:40:52;;;;;;;30.85;21.92;;;24.60;99.90;;;;;;5078511;28;20040;-62
2022/07/20 02:43:18;;;;;;;28.17;22.05;;;24.60;99.90;;;;;;5078128;28;20300;-62
2022/07/20 02:45:44;;;;;;;29.13;20.85;;;24.50;99.90;;;;;;5078477;28;20036;-64
2022/07/20 02:48:10;;;;;;;28.92;21.33;;;24.60;99.90;;;;;;5077627;28;20024;-62
2022/07/20 02:50:41;;;;;;;34.33;22.33;;;24.60;99.90;;;;;;5077834;28;20036;-63
2022/07/20 02:53:11;;;;;;;33.08;21.42;;;24.50;99.90;;;;;;5078321;28;20024;-66
2022/07/20 02:55:38;;;;;;;32.95;21.15;;;24.40;99.90;;;;;;5077484;28;20035;-64
2022/07/20 02:58:05;;;;;;;29.65;20.92;;;24.50;99.90;;;;;;5078333;28;20036;-64
2022/07/20 03:00:31;;;;;;;28.85;21.48;;;24.50;99.90;;;;;;5078453;28;20043;-66
2022/07/20 03:02:58;;;;;;;28.75;21.13;;;24.50;99.90;;;;;;5078135;28;20028;-65
2022/07/20 03:05:24;;;;;;;28.58;21.48;;;24.50;99.90;;;;;;5078128;28;20278;-63
2022/07/20 03:07:49;;;;;;;28.13;20.33;;;24.50;99.90;;;;;;5077563;28;20037;-62
2022/07/20 03:10:16;;;;;;;25.65;20.77;;;24.30;99.90;;;;;;5077994;28;20365;-62
2022/07/20 03:12:42;;;;;;;23.83;19.58;;;24.20;99.90;;;;;;5077278;28;20115;-62
2022/07/20 03:15:08;;;;;;;28.23;20.83;;;24.00;99.90;;;;;;5077857;28;20116;-61
2022/07/20 03:17:44;;;;;;;28.50;20.42;;;24.10;99.90;;;;;;5077906;28;20185;-64
2022/07/20 03:20:12;;;;;;;27.25;20.02;;;24.20;99.90;;;;;;5077845;28;20065;-62
2022/07/20 03:22:38;;;;;;;25.63;19.02;;;24.10;99.90;;;;;;5077794;28;20031;-61
2022/07/20 03:25:04;;;;;;;29.98;19.38;;;24.00;99.90;;;;;;5077640;28;20469;-63
2022/07/20 03:27:29;;;;;;;23.65;18.75;;;24.00;99.90;;;;;;5077615;28;20029;-63
2022/07/20 03:29:55;;;;;;;24.73;18.73;;;24.00;99.90;;;;;;5076864;28;20285;-64
2022/07/20 03:32:21;;;;;;;25.45;19.33;;;24.00;99.90;;;;;;5078213;28;20307;-65
2022/07/20 03:34:46;;;;;;;25.77;18.40;;;24.10;99.90;;;;;;5076942;28;20037;-65
2022/07/20 03:37:12;;;;;;;23.50;19.38;;;24.00;99.90;;;;;;5078109;28;20025;-64
2022/07/20 03:39:38;;;;;;;25.02;19.13;;;24.00;99.90;;;;;;5077417;28;20037;-65
2022/07/20 03:42:04;;;;;;;23.65;18.92;;;23.90;99.90;;;;;;5060026;28;20040;-61
2022/07/20 03:44:29;;;;;;;26.95;19.42;;;24.00;99.90;;;;;;5077230;28;20064;-63
2022/07/20 03:46:55;;;;;;;23.45;18.45;;;23.90;99.90;;;;;;5077393;28;20041;-64
2022/07/20 03:49:22;;;;;;;23.98;18.70;;;23.90;99.90;;;;;;5077179;28;20355;-65
2022/07/20 03:51:47;;;;;;;27.55;19.30;;;23.90;99.90;;;;;;5076517;28;20048;-64
2022/07/20 03:54:13;;;;;;;29.00;19.60;;;23.80;99.90;;;;;;5076629;28;20025;-65
2022/07/20 03:56:42;;;;;;;26.15;18.35;;;23.90;99.90;;;;;;5076888;28;20045;-64
2022/07/20 03:59:08;;;;;;;26.75;17.88;;;23.80;99.90;;;;;;5060031;28;20043;-63
2022/07/20 04:01:35;;;;;;;25.33;18.42;;;23.70;99.90;;;;;;5076956;28;20052;-63
2022/07/20 04:04:01;;;;;;;23.58;16.85;;;23.80;99.90;;;;;;5077224;28;20036;-62
2022/07/20 04:06:27;;;;;;;21.88;16.92;;;23.80;99.90;;;;;;5076926;28;20142;-63
2022/07/20 04:08:53;;;;;;;23.55;16.65;;;23.80;99.90;;;;;;5076796;28;20040;-63
2022/07/20 04:11:18;;;;;;;23.33;17.27;;;23.80;99.90;;;;;;5077518;28;20484;-63
2022/07/20 04:13:44;;;;;;;22.83;15.13;;;23.80;99.90;;;;;;5076952;28;20411;-63
2022/07/20 04:16:10;;;;;;;19.45;14.88;;;23.80;99.90;;;;;;5077029;28;20082;-64
2022/07/20 04:18:36;;;;;;;23.92;15.13;;;23.80;99.90;;;;;;5076574;28;20045;-65
2022/07/20 04:21:02;;;;;;;20.40;14.07;;;23.80;99.90;;;;;;5075924;28;20303;-62
2022/07/20 04:23:27;;;;;;;21.13;14.25;;;23.70;99.90;;;;;;5076850;28;20028;-64
2022/07/20 04:25:53;;;;;;;22.63;14.10;;;23.70;99.90;;;;;;5076514;28;20040;-63
2022/07/20 04:28:19;;;;;;;20.73;14.52;;;23.60;99.90;;;;;;5076667;28;20354;-64
2022/07/20 04:30:45;;;;;;;24.50;14.60;;;23.60;99.90;;;;;;5077340;28;20039;-60
2022/07/20 04:33:11;;;;;;;18.55;13.68;;;23.60;99.90;;;;;;5076753;28;20115;-64
2022/07/20 04:35:37;;;;;;;19.80;13.23;;;23.50;99.90;;;;;;5076066;28;20366;-66
2022/07/20 04:38:03;;;;;;;18.50;13.68;;;23.40;99.90;;;;;;5076691;28;20043;-63
2022/07/20 04:40:29;;;;;;;20.75;13.13;;;23.40;99.90;;;;;;5076685;28;20123;-64
2022/07/20 04:42:55;;;;;;;19.05;13.15;;;23.30;99.90;;;;;;5075760;28;20119;-64
2022/07/20 04:45:21;;;;;;;16.83;13.02;;;23.30;99.90;;;;;;5075933;28;20420;-64
2022/07/20 04:47:47;;;;;;;19.92;12.88;;;23.40;99.90;;;;;;5076496;28;20307;-67
2022/07/20 04:50:13;;;;;;;20.77;13.07;;;23.40;99.90;;;;;;5075854;28;20033;-65
2022/07/20 04:52:40;;;;;;;16.85;12.43;;;23.30;99.90;;;;;;5076529;28;20032;-65
2022/07/20 04:55:07;;;;;;;15.25;11.75;;;23.40;99.90;;;;;;5076519;28;20082;-65
2022/07/20 04:57:32;;;;;;;15.32;12.13;;;23.40;99.90;;;;;;5076367;28;20045;-64
2022/07/20 04:59:58;;;;;;;17.20;11.82;;;23.50;99.90;;;;;;5076437;28;20278;-64
2022/07/20 05:02:24;;;;;;;17.08;12.63;;;23.60;99.90;;;;;;5076442;28;20120;-65
2022/07/20 05:04:50;;;;;;;14.75;10.65;;;23.60;99.90;;;;;;5075772;28;20328;-64
2022/07/20 05:07:16;;;;;;;16.13;12.75;;;23.60;99.90;;;;;;5076506;28;20024;-63
2022/07/20 05:09:42;;;;;;;17.52;12.75;;;23.50;99.90;;;;;;5076477;28;20047;-65
2022/07/20 05:12:08;;;;;;;19.15;14.77;;;23.40;99.90;;;;;;5075715;28;20025;-63
2022/07/20 05:14:34;;;;;;;18.38;14.00;;;23.40;99.90;;;;;;5075669;28;20039;-64
2022/07/20 05:17:00;;;;;;;22.00;13.93;;;23.50;99.90;;;;;;5058898;28;20094;-65
2022/07/20 05:19:26;;;;;;;23.38;14.45;;;23.30;99.90;;;;;;5075636;28;20033;-65
2022/07/20 05:21:51;;;;;;;21.75;13.95;;;23.30;99.90;;;;;;5076301;28;20047;-59
2022/07/20 05:24:17;;;;;;;21.23;14.90;;;23.40;99.90;;;;;;5075649;28;20024;-66
2022/07/20 05:26:43;;;;;;;21.50;14.48;;;23.50;99.90;;;;;;5058804;28;20083;-60
2022/07/20 05:29:09;;;;;;;20.92;14.20;;;23.50;99.90;;;;;;5075391;28;20037;-63
2022/07/20 05:31:35;;;;;;;18.63;14.05;;;23.70;99.90;;;;;;5077937;28;20107;-64
2022/07/20 05:34:01;;;;;;;20.42;14.57;;;23.70;99.90;;;;;;5079737;28;20064;-61
2022/07/20 05:36:27;;;;;;;17.35;13.98;;;23.70;99.90;;;;;;5079750;28;20270;-62
2022/07/20 05:38:52;;;;;;;20.80;14.23;;;23.80;99.90;;;;;;5080073;28;20447;-63
2022/07/20 05:41:18;;;;;;;19.70;13.80;;;23.90;99.90;;;;;;5062204;28;20032;-65
2022/07/20 05:43:44;;;;;;;19.30;13.35;;;24.00;99.90;;;;;;5079572;28;20047;-62
2022/07/20 05:46:10;;;;;;;17.83;13.43;;;24.10;99.90;;;;;;5079528;28;20122;-64
2022/07/20 05:48:36;;;;;;;21.17;14.57;;;24.00;99.90;;;;;;5062002;28;20367;-64
2022/07/20 05:51:02;;;;;;;19.27;15.82;;;23.80;99.90;;;;;;5079032;28;20029;-64
2022/07/20 05:53:27;;;;;;;23.52;15.65;;;23.60;99.90;;;;;;5078991;28;20036;-62
2022/07/20 05:55:53;;;;;;;22.13;15.60;;;23.50;99.90;;;;;;5078522;28;20066;-65
2022/07/20 05:58:19;;;;;;;21.75;15.82;;;23.40;99.90;;;;;;5079167;28;20450;-64
2022/07/20 06:00:45;;;;;;;20.17;15.52;;;23.50;99.90;;;;;;5079323;28;20047;-61
2022/07/20 06:03:10;;;;;;;20.42;15.55;;;23.50;99.90;;;;;;5078551;28;20081;-66
2022/07/20 06:05:36;;;;;;;22.52;15.32;;;23.50;99.90;;;;;;5079219;28;20033;-65
2022/07/20 06:08:03;;;;;;;20.50;15.60;;;23.50;99.90;;;;;;5079111;28;20040;-61
2022/07/20 06:10:31;;;;;;;20.30;15.02;;;23.50;99.90;;;;;;5079185;28;20307;-64
2022/07/20 06:12:57;;;;;;;21.10;13.95;;;23.50;99.90;;;;;;5078274;28;20098;-64
2022/07/20 06:15:25;;;;;;;21.98;13.32;;;23.50;99.90;;;;;;5079135;28;20029;-62
2022/07/20 06:17:52;;;;;;;23.25;12.75;;;23.60;99.90;;;;;;5078231;28;20105;-60
2022/07/20 06:20:18;;;;;;;18.48;13.23;;;23.60;99.90;;;;;;5079498;28;20123;-67
2022/07/20 06:22:44;;;;;;;15.88;12.20;;;23.70;99.90;;;;;;5078068;28;20159;-61
2022/07/20 06:25:13;;;;;;;19.45;12.25;;;23.80;99.90;;;;;;5078811;28;20028;-62
2022/07/20 06:27:39;;;;;;;16.27;11.68;;;23.80;99.90;;;;;;5077990;28;20312;-67
2022/07/20 06:30:06;;;;;;;17.80;12.02;;;23.80;99.90;;;;;;5077900;28;20286;-67
2022/07/20 06:32:33;;;;;;;17.55;11.85;;;24.00;99.90;;;;;;5078731;28;20039;-61
2022/07/20 06:34:59;;;;;;;16.25;11.32;;;24.20;99.90;;;;;;5078653;28;20384;-62
2022/07/20 06:37:25;;;;;;;18.13;11.02;;;24.50;99.90;;;;;;5078927;28;20028;-62
2022/07/20 06:39:51;;;;;;;17.25;11.65;;;24.40;99.90;;;;;;5077877;28;20123;-64
2022/07/20 06:42:17;;;;;;;16.05;10.93;;;24.50;99.90;;;;;;5077744;28;20060;-65
2022/07/20 06:44:43;;;;;;;14.85;11.38;;;24.40;99.90;;;;;;5078459;28;20032;-62
2022/07/20 06:47:09;;;;;;;16.48;11.60;;;24.30;99.90;;;;;;5078777;28;20303;-60
2022/07/20 06:49:35;;;;;;;14.90;10.82;;;24.00;99.90;;;;;;5077634;28;20033;-61
2022/07/20 06:52:01;;;;;;;16.98;10.85;;;23.90;99.90;;;;;;5078322;28;20028;-63
2022/07/20 06:54:27;;;;;;;18.38;10.63;;;24.00;99.90;;;;;;5078327;28;20060;-59
2022/07/20 06:56:53;;;;;;;18.00;10.93;;;24.10;99.90;;;;;;5077936;28;20068;-59
2022/07/20 06:59:19;;;;;;;18.17;10.57;;;24.20;99.90;;;;;;5077487;28;20047;-64
2022/07/20 07:01:45;;;;;;;15.02;11.00;;;24.10;99.90;;;;;;5078157;28;20032;-61
2022/07/20 07:04:11;;;;;;;17.25;10.38;;;23.80;99.90;;;;;;5078019;28;20319;-65
2022/07/20 07:06:37;;;;;;;15.73;10.00;;;23.90;99.90;;;;;;5077361;28;20048;-66
2022/07/20 07:09:04;;;;;;;13.07;10.05;;;24.10;99.90;;;;;;5077188;28;20032;-66
2022/07/20 07:11:29;;;;;;;14.85;10.18;;;24.30;99.90;;;;;;5077966;28;20032;-64
2022/07/20 07:13:55;;;;;;;18.13;10.15;;;24.10;99.90;;;;;;5077900;28;20020;-63
2022/07/20 07:16:21;;;;;;;12.90;9.55;;;24.10;99.90;;;;;;5060702;28;20024;-66
2022/07/20 07:18:47;;;;;;;12.88;9.13;;;24.30;99.90;;;;;;5077009;28;20037;-65
2022/07/20 07:21:13;;;;;;;12.77;9.65;;;24.40;99.90;;;;;;5060523;28;20043;-64
2022/07/20 07:23:39;;;;;;;14.30;9.50;;;24.40;99.90;;;;;;5077667;28;20086;-65
2022/07/20 07:26:05;;;;;;;11.35;8.82;;;24.50;99.90;;;;;;5078003;28;20036;-64
2022/07/20 07:28:31;;;;;;;11.95;8.43;;;24.60;99.90;;;;;;5077597;28;20047;-60
2022/07/20 07:30:57;;;;;;;14.27;8.60;;;24.80;99.90;;;;;;5077678;28;20024;-63
2022/07/20 07:33:26;;;;;;;17.77;8.65;;;24.60;99.90;;;;;;5077575;28;20028;-63
2022/07/20 07:35:52;;;;;;;14.23;8.57;;;24.60;99.90;;;;;;5076776;28;20415;-64
2022/07/20 07:38:18;;;;;;;12.95;8.30;;;24.80;99.90;;;;;;5077398;28;20028;-62
2022/07/20 07:40:45;;;;;;;13.82;7.63;;;25.00;99.90;;;;;;5076617;28;20040;-61
2022/07/20 07:43:11;;;;;;;10.45;7.85;;;25.20;99.90;;;;;;5077319;28;20029;-60
2022/07/20 07:45:37;;;;;;;10.35;7.43;;;25.00;99.90;;;;;;5077342;28;20043;-61
2022/07/20 07:48:05;;;;;;;10.88;7.80;;;25.10;99.90;;;;;;5077567;28;20041;-65
2022/07/20 07:50:31;;;;;;;12.88;7.68;;;25.00;99.90;;;;;;5076530;28;20032;-63
2022/07/20 07:52:57;;;;;;;13.07;7.60;;;25.10;99.90;;;;;;5077244;28;20119;-63
2022/07/20 07:55:23;;;;;;;13.23;7.18;;;25.20;99.90;;;;;;5075567;28;20175;-65
2022/07/20 07:57:49;;;;;;;10.27;7.10;;;25.00;99.90;;;;;;5059914;28;20098;-59
2022/07/20 08:00:15;;;;;;;9.65;7.30;;;25.10;99.90;;;;;;5077115;28;20062;-59
2022/07/20 08:02:41;;;;;;;10.60;7.40;;;25.00;99.90;;;;;;5077411;28;20111;-60
2022/07/20 08:05:07;;;;;;;10.25;7.28;;;25.00;99.90;;;;;;5077021;28;20036;-63
2022/07/20 08:07:33;;;;;;;14.73;7.68;;;24.80;99.90;;;;;;5076993;28;20038;-67
2022/07/20 08:10:00;;;;;;;10.45;7.03;;;24.30;99.90;;;;;;5076314;28;20036;-66
2022/07/20 08:12:26;;;;;;;12.88;7.38;;;24.20;99.90;;;;;;5076940;28;20098;-68
2022/07/20 08:14:52;;;;;;;14.57;7.65;;;23.90;99.90;;;;;;5077037;28;20071;-64
2022/07/20 08:17:19;;;;;;;12.32;7.03;;;24.10;99.90;;;;;;5076235;28;20060;-68
2022/07/20 08:19:45;;;;;;;13.15;7.05;;;24.50;99.90;;;;;;5076222;28;20037;-67
2022/07/20 08:22:11;;;;;;;15.70;7.68;;;24.60;99.90;;;;;;5076861;28;20359;-67
2022/07/20 08:24:36;;;;;;;12.35;7.53;;;24.50;99.90;;;;;;5076553;28;20136;-66
2022/07/20 08:27:03;;;;;;;10.63;7.55;;;24.50;99.90;;;;;;5076771;28;20285;-66
2022/07/20 08:29:29;;;;;;;12.25;7.05;;;24.40;99.90;;;;;;5076036;28;20032;-66
2022/07/20 08:31:54;;;;;;;11.50;7.95;;;24.30;99.90;;;;;;5076337;28;20033;-69
2022/07/20 08:34:20;;;;;;;13.63;7.18;;;24.40;99.90;;;;;;5076075;28;20261;-67
2022/07/20 08:36:46;;;;;;;11.15;7.43;;;24.10;99.90;;;;;;5075919;28;20048;-68
2022/07/20 08:39:12;;;;;;;11.75;7.20;;;24.30;99.90;;;;;;5076018;28;20467;-67
2022/07/20 08:41:40;;;;;;;11.27;6.57;;;24.30;99.90;;;;;;5075994;28;20395;-66
2022/07/20 08:44:06;;;;;;;10.65;6.95;;;24.40;99.90;;;;;;5075888;28;20430;-65
2022/07/20 08:46:34;;;;;;;11.20;6.65;;;24.60;99.90;;;;;;5076697;28;20296;-67
2022/07/20 08:49:00;;;;;;;9.65;6.47;;;24.30;99.90;;;;;;5076456;28;20039;-65
2022/07/20 08:51:27;;;;;;;10.80;6.50;;;24.00;99.90;;;;;;5076554;28;20031;-66
2022/07/20 08:53:54;;;;;;;11.00;6.75;;;24.00;99.90;;;;;;5075769;28;20028;-66
2022/07/20 08:56:20;;;;;;;10.98;7.20;;;23.80;99.90;;;;;;5076331;28;20056;-66
2022/07/20 08:58:46;;;;;;;13.43;7.90;;;23.80;99.90;;;;;;5075960;28;20033;-67
2022/07/20 09:01:16;;;;;;;14.25;7.78;;;23.70;99.90;;;;;;5076594;28;20033;-66
2022/07/20 09:03:44;;;;;;;10.38;7.10;;;24.10;99.90;;;;;;5075990;28;20400;-66
2022/07/20 09:06:11;;;;;;;11.23;7.43;;;24.40;99.90;;;;;;5077744;28;20278;-67
2022/07/20 09:09:04;;;;;;;12.32;6.80;;;24.60;99.90;;;;;;5080227;28;20044;-66
2022/07/20 09:11:32;;;;;;;10.43;6.93;;;25.00;99.90;;;;;;5079585;28;20024;-66
2022/07/20 09:13:58;;;;;;;11.00;7.50;;;24.40;99.90;;;;;;5079380;28;20308;-65
2022/07/20 09:16:43;;;;;;;11.10;6.90;;;24.20;99.90;;;;;;5080714;28;20046;-67
2022/07/20 09:19:09;;;;;;;12.35;7.13;;;24.00;99.90;;;;;;5080075;28;20043;-66
2022/07/20 09:21:35;;;;;;;12.23;7.68;;;23.80;99.90;;;;;;5080050;28;20052;-66
2022/07/20 09:24:04;;;;;;;10.35;6.93;;;23.90;99.90;;;;;;5080106;28;20323;-64
2022/07/20 09:26:31;;;;;;;12.27;7.57;;;24.00;99.90;;;;;;5079236;28;20044;-66
2022/07/20 09:28:58;;;;;;;12.50;7.57;;;23.90;99.90;;;;;;5079714;28;20032;-65
2022/07/20 09:31:36;;;;;;;10.65;7.53;;;23.80;99.90;;;;;;5078962;28;20111;-64
2022/07/20 09:34:10;;;;;;;11.75;7.30;;;23.60;99.90;;;;;;5079764;28;20032;-66
2022/07/20 09:36:42;;;;;;;10.88;7.53;;;23.80;99.90;;;;;;5079190;28;20343;-67
2022/07/20 09:39:15;;;;;;;13.43;7.78;;;24.30;99.90;;;;;;5079739;28;20028;-66
2022/07/20 09:41:41;;;;;;;;;;;24.50;99.90;;;;;;5080254;28;20040;-67
2022/07/20 09:44:10;;;;;;;10.95;7.35;;;24.50;99.90;;;;;;5079658;28;19981;-64
2022/07/20 09:46:38;;;;;;;12.82;6.82;;;24.70;99.90;;;;;;5079449;28;20024;-67
2022/07/20 09:49:06;;;;;;;10.63;7.28;;;24.50;99.90;;;;;;5078803;28;20051;-67
2022/07/20 09:51:35;;;;;;;10.93;8.10;;;24.20;99.90;;;;;;5078758;28;20020;-67
2022/07/20 09:54:06;;;;;;;10.65;7.95;;;24.10;99.90;;;;;;5078687;28;20361;-67
2022/07/20 09:56:33;;;;;;;11.68;7.53;;;23.60;99.90;;;;;;5079057;28;20044;-67
2022/07/20 09:59:05;;;;;;;15.90;8.70;;;23.30;99.90;;;;;;5079512;28;20051;-67
2022/07/20 10:01:33;;;;;;;12.02;8.05;;;22.90;99.90;;;;;;5078694;28;20379;-66
2022/07/20 10:04:01;;;;;;;10.35;7.97;;;22.60;99.90;;;;;;5079428;28;20431;-66
2022/07/20 10:06:28;;;;;;;13.05;8.50;;;22.70;99.90;;;;;;5079415;28;20319;-66
2022/07/20 10:08:55;;;;;;;12.52;8.05;;;23.20;99.90;;;;;;5079195;28;20032;-67
2022/07/20 10:11:23;;;;;;;13.18;8.40;;;23.50;99.90;;;;;;5078563;28;20025;-65
2022/07/20 10:13:51;;;;;;;10.80;7.28;;;24.10;99.90;;;;;;5079383;28;20040;-67
2022/07/20 10:16:37;;;;;;;11.85;7.65;;;24.30;99.90;;;;;;5079034;28;20123;-67
2022/07/20 10:19:05;;;;;;;10.20;7.72;;;24.20;99.90;;;;;;5078794;28;20423;-65
2022/07/20 10:21:47;;;;;;;14.25;8.27;;;24.60;99.90;;;;;;5079170;28;20353;-65
2022/07/20 10:24:25;;;;;;;12.25;7.80;;;25.20;99.90;;;;;;5078435;28;20036;-66
2022/07/20 10:26:53;;;;;;;12.32;7.95;;;24.60;99.90;;;;;;5079575;28;20404;-66
2022/07/20 10:29:28;;;;;;;13.52;8.63;;;24.60;99.90;;;;;;5078846;28;20038;-65
2022/07/20 10:32:00;;;;;;;15.10;8.25;;;24.40;99.90;;;;;;5078944;28;20035;-68
2022/07/20 10:34:54;;;;;;;11.95;8.82;;;24.40;99.90;;;;;;5061417;28;20064;-67
2022/07/20 10:37:31;;;;;;;11.13;7.90;;;24.40;99.90;;;;;;5061261;28;20392;-67
2022/07/20 10:40:06;;;;;;;13.80;8.30;;;25.10;99.90;;;;;;5078027;28;20438;-67
2022/07/20 10:42:39;;;;;;;12.70;9.10;;;25.40;99.90;;;;;;5078794;28;20032;-66
2022/07/20 10:45:19;;;;;;;13.85;8.50;;;25.20;99.90;;;;;;5077728;28;20178;-66
2022/07/20 10:47:48;;;;;;;11.35;8.18;;;24.90;99.90;;;;;;5077707;28;20327;-67
2022/07/20 10:50:29;;;;;;;15.05;9.38;;;25.10;99.90;;;;;;5078412;28;20301;-66
2022/07/20 10:52:57;;;;;;;10.32;8.10;;;24.30;99.90;;;;;;5078488;28;20077;-68
2022/07/20 10:55:35;;;;;;;9.95;7.68;;;24.40;99.90;;;;;;5077706;28;20416;-67
2022/07/20 10:58:02;;;;;;;12.93;7.63;;;25.20;99.90;;;;;;5078599;28;20408;-65
2022/07/20 11:00:34;;;;;;;11.30;7.32;;;25.50;99.90;;;;;;5077537;28;20299;-65
2022/07/20 11:03:01;;;;;;;12.45;7.60;;;25.20;99.90;;;;;;5077757;28;20435;-66
2022/07/20 11:05:27;;;;;;;10.35;6.80;;;24.90;99.90;;;;;;5078216;28;20040;-64
2022/07/20 11:07:53;;;;;;;9.02;6.85;;;25.60;99.90;;;;;;5078054;28;20190;-68
2022/07/20 11:10:30;;;;;;;8.65;6.57;;;25.70;99.90;;;;;;5077981;28;20395;-70
2022/07/20 11:13:11;;;;;;;8.95;5.75;;;26.00;99.90;;;;;;5078392;28;20032;-65
2022/07/20 11:15:54;;;;;;;7.10;5.75;;;26.40;99.90;;;;;;5078011;28;20033;-66
2022/07/20 11:18:23;;;;;;;7.72;6.15;;;26.60;99.90;;;;;;5077957;28;20135;-65
2022/07/20 11:20:53;;;;;;;8.30;5.68;;;26.90;99.90;;;;;;5077854;28;20064;-68
2022/07/20 11:23:22;;;;;;;8.15;6.00;;;26.90;99.90;;;;;;5077732;28;20039;-68
2022/07/20 11:25:52;;;;;;;7.35;5.45;;;28.00;99.90;;;;;;5077769;28;20045;-66
2022/07/20 11:28:23;;;;;;;8.20;5.85;;;27.80;99.90;;;;;;5077287;28;20040;-65
2022/07/20 11:30:51;;;;;;;8.35;5.45;;;27.50;99.90;;;;;;5077717;28;20020;-67
2022/07/20 11:33:29;;;;;;;8.60;5.50;;;28.00;99.90;;;;;;5077657;28;20039;-66
2022/07/20 11:36:06;;;;;;;8.93;5.88;;;26.80;99.90;;;;;;5077694;28;20029;-67
2022/07/20 11:38:46;;;;;;;8.02;5.57;;;27.20;99.90;;;;;;5077652;28;20024;-70
2022/07/20 11:41:20;;;;;;;7.10;5.93;;;28.00;99.90;;;;;;5077044;28;20300;-61
2022/07/20 11:43:47;;;;;;;7.43;6.03;;;28.80;99.90;;;;;;5077328;28;20131;-61
2022/07/20 11:46:21;;;;;;;8.43;6.13;;;29.60;99.90;;;;;;5078140;28;20032;-63
2022/07/20 11:49:00;;;;;;;6.53;5.53;;;30.40;99.90;;;;;;5077147;28;20029;-67
2022/07/20 11:51:27;;;;;;;7.00;5.47;;;30.60;99.90;;;;;;5077806;28;20246;-60
2022/07/20 11:53:53;;;;;;;6.60;5.28;;;29.60;99.90;;;;;;5077195;28;20044;-68
2022/07/20 11:56:22;;;;;;;7.53;5.93;;;29.30;99.90;;;;;;5077142;28;20052;-69
2022/07/20 11:58:53;;;;;;;10.60;6.30;;;28.50;99.90;;;;;;5076563;28;20047;-70
2022/07/20 12:01:22;;;;;;;7.43;6.05;;;27.60;99.90;;;;;;5077265;28;20032;-67
2022/07/20 12:03:51;;;;;;;9.45;6.90;;;26.80;99.90;;;;;;5077084;28;20047;-60
2022/07/20 12:06:17;;;;;;;7.32;6.47;;;27.70;99.90;;;;;;5077133;28;20456;-68
2022/07/20 12:08:43;;;;;;;7.30;6.05;;;28.70;99.90;;;;;;5076934;28;20197;-67
2022/07/20 12:11:10;;;;;;;7.88;5.53;;;29.80;99.90;;;;;;5077073;28;20024;-64
2022/07/20 12:13:49;;;;;;;7.78;6.55;;;29.80;99.90;;;;;;5077005;28;20306;-66
2022/07/20 12:16:16;;;;;;;8.23;5.93;;;30.90;99.90;;;;;;5076353;28;20395;-66
2022/07/20 12:18:51;;;;;;;8.05;5.85;;;32.50;99.90;;;;;;5076861;28;20035;-65
2022/07/20 12:21:21;;;;;;;10.18;6.38;;;33.60;99.90;;;;;;5077525;28;20052;-64
2022/07/20 12:23:50;;;;;;;8.38;6.53;;;34.50;99.90;;;;;;5076921;28;20028;-65
2022/07/20 12:26:35;;;;;;;10.27;6.93;;;32.00;99.90;;;;;;5076207;28;20043;-66
2022/07/20 12:29:26;;;;;;;10.07;7.18;;;31.40;99.90;;;;;;5076978;28;20411;-63
2022/07/20 12:32:03;;;;;;;8.63;7.72;;;29.50;99.90;;;;;;5076864;28;20116;-68
2022/07/20 12:34:31;;;;;;;10.00;7.55;;;27.90;99.90;;;;;;5075972;28;20090;-64
2022/07/20 12:36:58;;;;;;;8.57;7.78;;;28.60;99.90;;;;;;5077845;28;20411;-67
2022/07/20 12:39:49;;;;;;;10.45;7.47;;;30.10;99.90;;;;;;5076675;28;20323;-67